KMRC

Maury County Airport

Columbia/Mount Pleasant, Tennessee, USA
METAR KMRC 191855Z AUTO 22005KT 10SM CLR 35/14 A2999 RMK A01
Observed Flight Rules
Sep-19 @ 18:55 UTC (28 minutes ago) Visual Flight Rules
Wind Visibility Clouds
220° at 5 knots 10 miles
  • Clear skies
Temperatures Readings
Current 35°C / 95°F
Dewpoint 14°C / 57°F
Humidity 28%
Altimeter 29.99" Hg
Pressure 1016 hPa
Elevation 208
METAR KMRC 191855Z AUTO 22005KT 10SM CLR 35/14 A2999 RMK A01
Observed Flight Rules
Sep-19 @ 18:55 UTC
(28 minutes ago)
VFR
Wind Visibility
220° at 5 knots 10 miles
Clouds
  • Clear skies
Temperature Dewpoint
35°C / 95°F 14°C / 57°F
Humidity Altimeter Pressure
28% 29.99" Hg 1016 hPa